Time;durP1;ratioP1;P1;durP2;ratioP2;P2;SDS_P1;SDS_P2;PMS_P1;PMS_P2;Temp;Humidity;BMP_temperature;BMP_pressure;BME280_temperature;BME280_humidity;BME280_pressure;Samples;Min_cycle;Max_cycle;Signal;HPM_P1;HPM_P2
2021/10/19 00:00:24;;;;;;;107.25;49.88;;;5.60;99.90;;;;;;5071976;28;20130;-79
2021/10/19 00:02:51;;;;;;;106.60;49.47;;;5.60;99.90;;;;;;5073110;28;20045;-79
2021/10/19 00:05:17;;;;;;;88.88;42.83;;;5.60;99.90;;;;;;5071869;28;20025;-78
2021/10/19 00:07:43;;;;;;;97.57;46.58;;;5.60;99.90;;;;;;5073167;28;20031;-79
2021/10/19 00:10:11;;;;;;;95.22;43.53;;;5.60;99.90;;;;;;5073121;28;20095;-79
2021/10/19 00:12:38;;;;;;;87.20;39.53;;;5.60;99.90;;;;;;5071852;28;20052;-78
2021/10/19 00:15:08;;;;;;;88.05;43.20;;;5.60;99.90;;;;;;5072911;28;20020;-79
2021/10/19 00:17:34;;;;;;;85.97;43.03;;;5.60;99.90;;;;;;5071809;28;20074;-79
2021/10/19 00:19:59;;;;;;;95.35;42.05;;;5.60;99.90;;;;;;5072993;28;20029;-79
2021/10/19 00:22:25;;;;;;;77.90;33.72;;;5.50;99.90;;;;;;5071628;28;20028;-79
2021/10/19 00:24:51;;;;;;;58.42;26.75;;;5.50;99.90;;;;;;5072828;28;20032;-79
2021/10/19 00:27:16;;;;;;;67.22;34.13;;;5.40;99.90;;;;;;5071675;28;20054;-78
2021/10/19 00:29:42;;;;;;;66.70;30.23;;;5.40;99.90;;;;;;5071554;28;20031;-79
2021/10/19 00:32:07;;;;;;;73.88;33.05;;;5.40;99.90;;;;;;5071628;28;20032;-79
2021/10/19 00:34:34;;;;;;;70.95;35.35;;;5.40;99.90;;;;;;5072867;28;20054;-79
2021/10/19 00:37:00;;;;;;;100.90;44.08;;;5.40;99.90;;;;;;5072802;28;20027;-79
2021/10/19 00:39:25;;;;;;;93.13;45.67;;;5.40;99.90;;;;;;5071570;28;20024;-79
2021/10/19 00:41:51;;;;;;;97.72;47.05;;;5.40;99.90;;;;;;5071250;28;20582;-78
2021/10/19 00:44:17;;;;;;;92.35;43.40;;;5.50;99.90;;;;;;5075464;28;20021;-78
2021/10/19 00:46:44;;;;;;;122.25;54.78;;;5.40;99.90;;;;;;5091669;28;20499;-78
2021/10/19 00:49:10;;;;;;;108.72;50.10;;;5.40;99.90;;;;;;5091585;28;20093;-78
2021/10/19 00:51:36;;;;;;;110.30;50.15;;;5.50;99.90;;;;;;5091603;28;20024;-78
2021/10/19 00:54:02;;;;;;;115.43;56.63;;;5.50;99.90;;;;;;5092818;28;20047;-78
2021/10/19 00:56:29;;;;;;;109.90;51.90;;;5.50;99.90;;;;;;5091530;28;20481;-78
2021/10/19 00:58:55;;;;;;;122.93;57.97;;;5.50;99.90;;;;;;5091295;28;20486;-78
2021/10/19 01:01:20;;;;;;;136.70;59.85;;;5.50;99.90;;;;;;5091524;28;20046;-78
2021/10/19 01:03:46;;;;;;;130.73;62.65;;;5.50;99.90;;;;;;5092633;28;20032;-78
2021/10/19 01:06:13;;;;;;;118.32;56.67;;;5.50;99.90;;;;;;5092771;28;20031;-78
2021/10/19 01:08:40;;;;;;;114.80;55.05;;;5.50;99.90;;;;;;5092662;28;20067;-78
2021/10/19 01:11:06;;;;;;;125.68;59.33;;;5.50;99.90;;;;;;5091386;28;20020;-78
2021/10/19 01:13:33;;;;;;;108.22;52.47;;;5.50;99.90;;;;;;5091383;28;20103;-79
2021/10/19 01:16:10;;;;;;;110.13;52.15;;;5.60;99.90;;;;;;5092614;28;20020;-79
2021/10/19 01:18:36;;;;;;;114.65;52.78;;;5.50;99.90;;;;;;5092624;28;20419;-78
2021/10/19 01:21:04;;;;;;;85.78;43.75;;;5.50;99.90;;;;;;5092567;28;20074;-79
2021/10/19 01:23:29;;;;;;;91.40;44.70;;;5.50;99.90;;;;;;5092460;28;20028;-79
2021/10/19 01:25:56;;;;;;;89.47;44.60;;;5.40;99.90;;;;;;5094467;28;20513;-79
2021/10/19 01:28:21;;;;;;;86.45;42.95;;;5.50;99.90;;;;;;5095033;28;20031;-79
2021/10/19 01:30:49;;;;;;;89.75;43.10;;;5.40;99.90;;;;;;5094665;28;20024;-79
2021/10/19 01:33:15;;;;;;;96.30;48.70;;;5.40;99.90;;;;;;5095065;28;20024;-79
2021/10/19 01:35:44;;;;;;;101.40;47.75;;;5.40;99.90;;;;;;5095028;28;20173;-79
2021/10/19 01:38:16;;;;;;;93.45;46.05;;;5.40;99.90;;;;;;5096244;28;20028;-79
2021/10/19 01:40:42;;;;;;;88.47;42.90;;;5.40;99.90;;;;;;5095005;28;20024;-79
2021/10/19 01:43:09;;;;;;;100.38;48.45;;;5.40;99.90;;;;;;5094860;28;20638;-79
2021/10/19 01:45:35;;;;;;;92.50;44.20;;;5.40;99.90;;;;;;5094651;28;20017;-78
2021/10/19 01:48:00;;;;;;;94.10;45.70;;;5.40;99.90;;;;;;5096090;28;20031;-78
2021/10/19 01:50:26;;;;;;;81.53;41.05;;;5.30;99.90;;;;;;5094667;28;20016;-78
2021/10/19 01:52:52;;;;;;;85.88;40.60;;;5.30;99.90;;;;;;5094606;28;20028;-78
2021/10/19 01:55:17;;;;;;;76.70;35.83;;;5.30;99.90;;;;;;5094698;28;20115;-79
2021/10/19 01:57:43;;;;;;;72.72;36.78;;;5.20;99.90;;;;;;5094621;28;20044;-79
2021/10/19 02:00:12;;;;;;;82.80;40.13;;;5.20;99.90;;;;;;5094550;28;20381;-79
2021/10/19 02:02:39;;;;;;;80.70;41.70;;;5.20;99.90;;;;;;5095651;28;20028;-79
2021/10/19 02:05:06;;;;;;;89.25;46.22;;;5.20;99.90;;;;;;5094380;28;20428;-79
2021/10/19 02:07:32;;;;;;;91.90;41.28;;;5.10;99.90;;;;;;5094349;28;20024;-79
2021/10/19 02:09:59;;;;;;;93.72;45.03;;;5.10;99.90;;;;;;5095513;28;20115;-79
2021/10/19 02:12:25;;;;;;;94.40;44.60;;;5.10;99.90;;;;;;5094590;28;20437;-78
2021/10/19 02:14:50;;;;;;;91.22;47.83;;;5.10;99.90;;;;;;5094194;28;20066;-79
2021/10/19 02:17:16;;;;;;;87.15;42.30;;;5.10;99.90;;;;;;5094347;28;20067;-79
2021/10/19 02:19:42;;;;;;;84.22;43.03;;;5.10;99.90;;;;;;5095383;28;20024;-78
2021/10/19 02:22:07;;;;;;;79.60;41.20;;;5.00;99.90;;;;;;5094091;28;20035;-78
2021/10/19 02:24:33;;;;;;;84.55;42.45;;;5.00;99.90;;;;;;5094053;28;20031;-79
2021/10/19 02:26:59;;;;;;;79.22;40.80;;;5.00;99.90;;;;;;5094009;28;20484;-79
2021/10/19 02:29:24;;;;;;;97.05;46.45;;;5.00;99.90;;;;;;5093958;28;20035;-79
2021/10/19 02:31:50;;;;;;;82.30;40.83;;;4.90;99.90;;;;;;5093899;28;20024;-78
2021/10/19 02:34:17;;;;;;;77.28;38.47;;;4.80;99.90;;;;;;5093891;28;20020;-79
2021/10/19 02:36:43;;;;;;;86.13;42.10;;;4.80;99.90;;;;;;5092856;28;20027;-79
2021/10/19 02:39:09;;;;;;;76.40;39.55;;;4.70;99.90;;;;;;5093211;28;20059;-79
2021/10/19 02:41:36;;;;;;;81.47;39.50;;;4.70;99.90;;;;;;5082458;28;20029;-79
2021/10/19 02:44:02;;;;;;;78.97;40.22;;;4.70;99.90;;;;;;5073188;28;20478;-79
2021/10/19 02:46:31;;;;;;;71.30;38.75;;;4.70;99.90;;;;;;5074647;28;20021;-79
2021/10/19 02:48:57;;;;;;;73.78;37.47;;;4.60;99.90;;;;;;5073254;28;20074;-79
2021/10/19 02:51:23;;;;;;;67.78;37.38;;;4.60;99.90;;;;;;5073325;28;20027;-78
2021/10/19 02:53:49;;;;;;;65.03;35.80;;;4.50;99.90;;;;;;5073156;28;20111;-78
2021/10/19 02:56:15;;;;;;;73.10;35.70;;;4.50;99.90;;;;;;5073302;28;20052;-78
2021/10/19 02:58:40;;;;;;;72.30;38.08;;;4.40;99.90;;;;;;5074354;28;20436;-78
2021/10/19 03:01:06;;;;;;;76.78;39.40;;;4.40;99.90;;;;;;5074437;28;20078;-78
2021/10/19 03:03:32;;;;;;;70.50;36.70;;;4.40;99.90;;;;;;5072904;28;20040;-79
2021/10/19 03:05:58;;;;;;;71.25;39.63;;;4.40;99.90;;;;;;5074314;28;20051;-79
2021/10/19 03:08:24;;;;;;;73.32;36.85;;;4.40;99.90;;;;;;5072941;28;20028;-79
2021/10/19 03:10:49;;;;;;;82.35;42.22;;;4.30;99.90;;;;;;5074229;28;20031;-79
2021/10/19 03:13:15;;;;;;;81.15;42.17;;;4.30;99.90;;;;;;5072892;28;20066;-79
2021/10/19 03:15:41;;;;;;;70.70;39.33;;;4.30;99.90;;;;;;5072810;28;20020;-79
2021/10/19 03:18:07;;;;;;;73.03;37.42;;;4.20;99.90;;;;;;5072809;28;20393;-79
2021/10/19 03:20:33;;;;;;;79.57;42.03;;;4.20;99.90;;;;;;5074070;28;20024;-79
2021/10/19 03:22:59;;;;;;;73.80;39.33;;;4.10;99.90;;;;;;5072598;28;20040;-79
2021/10/19 03:25:24;;;;;;;75.07;38.63;;;4.10;99.90;;;;;;5072631;28;20088;-78
2021/10/19 03:27:50;;;;;;;66.32;34.28;;;4.10;99.90;;;;;;5073818;28;20016;-78
2021/10/19 03:30:16;;;;;;;59.45;30.48;;;4.10;99.90;;;;;;5072543;28;20085;-78
2021/10/19 03:32:41;;;;;;;68.40;34.35;;;4.00;99.90;;;;;;5072545;28;20078;-78
2021/10/19 03:35:07;;;;;;;67.35;35.22;;;4.00;99.90;;;;;;5072414;28;20196;-78
2021/10/19 03:37:33;;;;;;;70.88;35.60;;;4.00;99.90;;;;;;5073686;28;20017;-78
2021/10/19 03:39:59;;;;;;;69.95;36.35;;;3.90;99.90;;;;;;5073556;28;20553;-78
2021/10/19 03:42:25;;;;;;;66.00;35.22;;;3.90;99.90;;;;;;5073569;28;20036;-78
2021/10/19 03:44:51;;;;;;;65.75;35.35;;;3.90;99.90;;;;;;5080800;28;20028;-78
2021/10/19 03:47:16;;;;;;;70.57;35.67;;;3.80;99.90;;;;;;5093944;28;20024;-78
2021/10/19 03:49:42;;;;;;;64.07;33.53;;;3.80;99.90;;;;;;5093323;28;20070;-78
2021/10/19 03:52:08;;;;;;;70.43;37.58;;;3.80;99.90;;;;;;5093684;28;20020;-79
2021/10/19 03:54:34;;;;;;;80.90;39.30;;;3.80;99.90;;;;;;5092461;28;20103;-78
2021/10/19 03:56:59;;;;;;;83.85;41.05;;;3.70;99.90;;;;;;5092356;28;20393;-78
2021/10/19 03:59:26;;;;;;;106.88;44.42;;;3.70;99.90;;;;;;5092431;28;20035;-78
2021/10/19 04:01:51;;;;;;;101.07;46.13;;;3.70;99.90;;;;;;5093440;28;20081;-78
2021/10/19 04:04:19;;;;;;;84.20;40.25;;;3.70;99.90;;;;;;5092198;28;20461;-78
2021/10/19 04:06:44;;;;;;;89.40;44.90;;;3.70;99.90;;;;;;5092418;28;20046;-78
2021/10/19 04:09:10;;;;;;;80.05;41.35;;;3.70;99.90;;;;;;5083824;28;20032;-78
2021/10/19 04:11:35;;;;;;;90.45;41.00;;;3.60;99.90;;;;;;5088088;28;20016;-78
2021/10/19 04:14:01;;;;;;;83.13;39.17;;;3.60;99.90;;;;;;5072890;28;20043;-78
2021/10/19 04:16:27;;;;;;;74.97;37.45;;;3.60;99.90;;;;;;5070689;28;20016;-78
2021/10/19 04:18:53;;;;;;;81.22;38.00;;;3.70;99.90;;;;;;5070720;28;20056;-79
2021/10/19 04:21:18;;;;;;;90.28;40.92;;;3.70;99.90;;;;;;5069084;28;20028;-78
2021/10/19 04:23:44;;;;;;;70.93;36.00;;;3.60;99.90;;;;;;5069298;28;20131;-78
2021/10/19 04:26:10;;;;;;;78.13;37.85;;;3.60;99.90;;;;;;5071448;28;20021;-78
2021/10/19 04:28:36;;;;;;;72.60;36.63;;;3.60;99.90;;;;;;5070701;28;20069;-78
2021/10/19 04:31:02;;;;;;;76.80;37.15;;;3.60;99.90;;;;;;5078458;28;20027;-78
2021/10/19 04:33:27;;;;;;;76.05;36.25;;;3.60;99.90;;;;;;5090651;28;20389;-78
2021/10/19 04:35:53;;;;;;;70.60;36.70;;;3.60;99.90;;;;;;5089669;28;20397;-78
2021/10/19 04:38:18;;;;;;;83.30;39.85;;;3.60;99.90;;;;;;5071255;28;20028;-78
2021/10/19 04:40:44;;;;;;;76.65;37.30;;;3.50;99.90;;;;;;5069395;28;20021;-79
2021/10/19 04:43:10;;;;;;;83.15;38.40;;;3.60;99.90;;;;;;5074823;28;20035;-78
2021/10/19 04:45:35;;;;;;;75.43;37.28;;;3.60;99.90;;;;;;5079026;28;20389;-78
2021/10/19 04:48:01;;;;;;;74.32;37.58;;;3.50;99.90;;;;;;5072649;28;20020;-78
2021/10/19 04:50:28;;;;;;;87.60;37.83;;;3.50;99.90;;;;;;5071382;28;20115;-78
2021/10/19 04:52:53;;;;;;;84.75;40.20;;;3.50;99.90;;;;;;5072707;28;20563;-78
2021/10/19 04:55:19;;;;;;;74.20;36.00;;;3.50;99.90;;;;;;5079490;28;20055;-78
2021/10/19 04:57:45;;;;;;;86.88;38.30;;;3.50;99.90;;;;;;5091529;28;20036;-78
2021/10/19 05:00:11;;;;;;;73.05;37.33;;;3.50;99.90;;;;;;5091755;28;20027;-78
2021/10/19 05:02:47;;;;;;;70.10;36.90;;;3.40;99.90;;;;;;5095698;28;20036;-78
2021/10/19 05:05:14;;;;;;;69.68;37.35;;;3.40;99.90;;;;;;5096886;28;20470;-78
2021/10/19 05:07:40;;;;;;;78.47;39.40;;;3.40;99.90;;;;;;5096451;28;20020;-78
2021/10/19 05:10:06;;;;;;;75.78;40.85;;;3.40;99.90;;;;;;5096401;28;20465;-78
2021/10/19 05:12:32;;;;;;;70.50;36.28;;;3.30;99.90;;;;;;5075161;28;20100;-78
2021/10/19 05:14:58;;;;;;;71.68;37.30;;;3.30;99.90;;;;;;5075057;28;20073;-78
2021/10/19 05:17:24;;;;;;;78.10;40.65;;;3.30;99.90;;;;;;5075156;28;20389;-78
2021/10/19 05:19:49;;;;;;;69.80;37.42;;;3.20;99.90;;;;;;5074933;28;20074;-78
2021/10/19 05:22:16;;;;;;;85.10;39.67;;;3.20;99.90;;;;;;5076275;28;20041;-78
2021/10/19 05:24:41;;;;;;;79.80;37.88;;;3.20;99.90;;;;;;5075431;28;20029;-78
2021/10/19 05:27:07;;;;;;;77.43;35.72;;;3.30;99.90;;;;;;5076567;28;20027;-78
2021/10/19 05:29:33;;;;;;;74.35;36.67;;;3.20;99.90;;;;;;5086386;28;20024;-79
2021/10/19 05:31:58;;;;;;;67.80;37.40;;;3.20;99.90;;;;;;5086043;28;20019;-79
2021/10/19 05:34:25;;;;;;;73.88;36.35;;;3.20;99.90;;;;;;5087348;28;20028;-78
2021/10/19 05:36:50;;;;;;;73.40;37.28;;;3.20;99.90;;;;;;5085628;28;20102;-78
2021/10/19 05:39:17;;;;;;;86.18;34.80;;;3.20;99.90;;;;;;5084670;28;20031;-78
2021/10/19 05:41:44;;;;;;;87.95;39.40;;;3.20;99.90;;;;;;5085264;28;20489;-79
2021/10/19 05:44:10;;;;;;;82.20;42.15;;;3.20;99.90;;;;;;5087499;28;20043;-78
2021/10/19 05:46:36;;;;;;;78.65;40.60;;;3.20;99.90;;;;;;5090847;28;20466;-78
2021/10/19 05:49:01;;;;;;;91.85;45.35;;;3.20;99.90;;;;;;5082296;28;20031;-78
2021/10/19 05:51:27;;;;;;;77.65;40.42;;;3.20;99.90;;;;;;5087492;28;20028;-78
2021/10/19 05:53:53;;;;;;;72.78;39.33;;;3.20;99.90;;;;;;5084695;28;20020;-79
2021/10/19 05:56:19;;;;;;;70.38;35.00;;;3.20;99.90;;;;;;5085194;28;20075;-79
2021/10/19 05:58:44;;;;;;;71.90;35.80;;;3.20;99.90;;;;;;5094429;28;20085;-79
2021/10/19 06:01:10;;;;;;;60.47;33.88;;;3.20;99.90;;;;;;5088331;28;20110;-79
2021/10/19 06:03:36;;;;;;;72.85;33.85;;;3.20;99.90;;;;;;5089697;28;20386;-78
2021/10/19 06:06:07;;;;;;;71.72;34.85;;;3.20;99.90;;;;;;5074113;28;20036;-78
2021/10/19 06:08:33;;;;;;;67.78;32.58;;;3.20;99.90;;;;;;5084762;28;20017;-79
2021/10/19 06:10:59;;;;;;;81.32;36.85;;;3.20;99.90;;;;;;5083556;28;20112;-79
2021/10/19 06:13:25;;;;;;;69.22;35.53;;;3.30;99.90;;;;;;5082991;28;20038;-78
2021/10/19 06:15:52;;;;;;;80.82;39.65;;;3.40;99.90;;;;;;5081089;28;20013;-79
2021/10/19 06:18:18;;;;;;;74.47;39.35;;;3.60;99.90;;;;;;5083320;28;20017;-79
2021/10/19 06:20:46;;;;;;;79.78;42.20;;;3.70;99.90;;;;;;5073500;28;20031;-78
2021/10/19 06:23:12;;;;;;;75.38;39.55;;;3.80;99.90;;;;;;5071914;28;20121;-79
2021/10/19 06:25:38;;;;;;;87.63;44.55;;;4.00;99.90;;;;;;5073585;28;20028;-79
2021/10/19 06:28:04;;;;;;;78.70;43.55;;;4.10;99.90;;;;;;5079267;28;20029;-79
2021/10/19 06:30:30;;;;;;;80.55;44.65;;;4.20;99.90;;;;;;5093719;28;20031;-79
2021/10/19 06:32:59;;;;;;;90.40;43.80;;;4.40;99.90;;;;;;5079990;28;20366;-79
2021/10/19 06:35:25;;;;;;;86.25;44.83;;;4.60;99.90;;;;;;5081616;28;20044;-79
2021/10/19 06:37:51;;;;;;;83.25;43.88;;;4.90;99.90;;;;;;5103595;28;20078;-79
2021/10/19 06:40:17;;;;;;;87.85;46.25;;;5.10;99.90;;;;;;5080822;28;20024;-80
2021/10/19 06:42:42;;;;;;;96.00;45.25;;;5.30;99.90;;;;;;5079922;28;20094;-80
2021/10/19 06:45:09;;;;;;;86.90;45.28;;;5.50;99.90;;;;;;5076643;28;20370;-80
2021/10/19 06:47:35;;;;;;;92.28;47.03;;;5.70;99.90;;;;;;5072145;28;20028;-80
2021/10/19 06:50:01;;;;;;;79.38;40.50;;;6.00;99.90;;;;;;5080289;28;20025;-80
2021/10/19 06:52:31;;;;;;;78.63;39.13;;;6.20;99.90;;;;;;5075157;28;20052;-79
2021/10/19 06:54:57;;;;;;;70.47;37.63;;;6.40;99.90;;;;;;5077330;28;20453;-79
2021/10/19 06:57:23;;;;;;;62.13;32.67;;;6.60;99.90;;;;;;5067120;28;20115;-80
2021/10/19 06:59:49;;;;;;;54.67;32.05;;;6.80;99.90;;;;;;5071861;28;20324;-79
2021/10/19 07:02:14;;;;;;;60.63;30.98;;;6.90;99.90;;;;;;5083340;28;20059;-79
2021/10/19 07:04:40;;;;;;;64.30;33.03;;;7.10;99.90;;;;;;5073261;28;20044;-79
2021/10/19 07:07:06;;;;;;;54.55;30.23;;;7.30;99.90;;;;;;5074374;28;20016;-80
2021/10/19 07:09:35;;;;;;;46.55;25.08;;;7.40;99.90;;;;;;5070741;28;20029;-80
2021/10/19 07:12:03;;;;;;;41.35;25.05;;;7.50;99.90;;;;;;5088489;28;20028;-80
2021/10/19 07:14:29;;;;;;;38.63;24.25;;;7.60;99.90;;;;;;5074017;28;20043;-81
2021/10/19 07:16:55;;;;;;;38.33;24.88;;;7.80;99.90;;;;;;5092465;28;20035;-80
2021/10/19 07:19:21;;;;;;;42.63;22.48;;;7.80;99.90;;;;;;5091325;28;20028;-79
2021/10/19 07:21:46;;;;;;;45.90;23.50;;;7.90;99.90;;;;;;5091807;28;20473;-80
2021/10/19 07:24:12;;;;;;;37.40;22.55;;;8.10;99.90;;;;;;5090931;28;20091;-80
2021/10/19 07:26:38;;;;;;;36.95;22.75;;;8.20;99.90;;;;;;5090791;28;20457;-79
2021/10/19 07:29:04;;;;;;;35.22;20.65;;;8.30;99.90;;;;;;5094909;28;20445;-79
2021/10/19 07:31:29;;;;;;;39.40;21.67;;;8.40;99.90;;;;;;5088691;28;20483;-79
2021/10/19 07:33:55;;;;;;;37.45;19.70;;;8.50;99.90;;;;;;5079031;28;20028;-79
2021/10/19 07:36:27;;;;;;;32.40;19.17;;;8.50;99.90;;;;;;5071804;28;20009;-79
2021/10/19 07:38:53;;;;;;;34.22;19.65;;;8.60;99.90;;;;;;5076108;28;20039;-79
2021/10/19 07:41:19;;;;;;;33.22;20.38;;;8.70;99.90;;;;;;5077917;28;20110;-79
2021/10/19 07:43:44;;;;;;;32.10;19.90;;;8.80;99.90;;;;;;5089566;28;20052;-79
2021/10/19 07:46:10;;;;;;;32.72;18.90;;;8.80;99.90;;;;;;5105475;28;20047;-79
2021/10/19 07:48:36;;;;;;;30.45;18.73;;;8.90;99.90;;;;;;5069744;28;20060;-78
2021/10/19 07:51:02;;;;;;;31.27;18.83;;;9.00;99.90;;;;;;5071968;28;20086;-79
2021/10/19 07:53:28;;;;;;;31.77;20.13;;;9.10;99.90;;;;;;5066036;28;20392;-79
2021/10/19 07:55:54;;;;;;;32.47;17.90;;;9.20;99.90;;;;;;5076347;28;20023;-80
2021/10/19 07:58:20;;;;;;;34.95;18.60;;;9.20;99.90;;;;;;5066469;28;20090;-79
2021/10/19 08:00:45;;;;;;;33.78;19.80;;;9.30;99.90;;;;;;5082249;28;20019;-79
2021/10/19 08:03:11;;;;;;;35.05;18.83;;;9.50;99.90;;;;;;5070390;28;20032;-79
2021/10/19 08:05:37;;;;;;;33.20;18.40;;;9.50;99.90;;;;;;5075799;28;20032;-79
2021/10/19 08:08:08;;;;;;;32.63;18.85;;;9.60;99.90;;;;;;5081605;28;20028;-79
2021/10/19 08:10:35;;;;;;;30.50;17.67;;;9.60;99.90;;;;;;5075887;28;20036;-79
2021/10/19 08:13:01;;;;;;;33.40;18.33;;;9.60;99.90;;;;;;5074649;28;20028;-80
2021/10/19 08:15:27;;;;;;;28.13;18.30;;;9.70;99.90;;;;;;5077507;28;20813;-81
2021/10/19 08:17:53;;;;;;;31.77;18.45;;;9.70;99.90;;;;;;5088000;28;20098;-80
2021/10/19 08:20:18;;;;;;;33.83;17.35;;;9.70;99.90;;;;;;5084692;28;20032;-79
2021/10/19 08:22:44;;;;;;;29.88;16.48;;;9.80;99.90;;;;;;5071616;28;20028;-79
2021/10/19 08:25:11;;;;;;;28.83;18.30;;;9.80;99.90;;;;;;5085282;28;20039;-80
2021/10/19 08:27:39;;;;;;;33.40;16.75;;;10.00;99.90;;;;;;5071809;28;20043;-79
2021/10/19 08:30:06;;;;;;;27.83;17.13;;;10.00;99.90;;;;;;5070567;28;20054;-80
2021/10/19 08:32:33;;;;;;;22.95;14.75;;;10.20;99.90;;;;;;5068788;28;20398;-79
2021/10/19 08:34:59;;;;;;;26.25;14.30;;;10.20;99.90;;;;;;5070644;28;20481;-79
2021/10/19 08:37:25;;;;;;;24.48;15.27;;;10.30;99.90;;;;;;5069164;28;20482;-79
2021/10/19 08:39:50;;;;;;;21.25;13.18;;;10.40;99.90;;;;;;5080146;28;20055;-79
2021/10/19 08:42:17;;;;;;;18.80;12.45;;;10.40;99.90;;;;;;5083789;28;20024;-79
2021/10/19 08:44:45;;;;;;;23.65;12.27;;;10.50;99.90;;;;;;5068729;28;20063;-79
2021/10/19 08:47:11;;;;;;;21.92;12.75;;;10.60;99.90;;;;;;5085708;28;20473;-79
2021/10/19 08:49:36;;;;;;;20.05;12.27;;;10.60;99.90;;;;;;5105980;28;20444;-79
2021/10/19 08:52:02;;;;;;;18.15;12.55;;;10.70;99.90;;;;;;5095313;28;20020;-79
2021/10/19 08:54:28;;;;;;;19.63;11.50;;;10.80;99.90;;;;;;5085601;28;20385;-79
2021/10/19 08:56:54;;;;;;;18.55;11.63;;;10.90;99.90;;;;;;5069182;28;20024;-79
2021/10/19 08:59:22;;;;;;;19.25;10.07;;;11.00;99.90;;;;;;5066029;28;20044;-79
2021/10/19 09:01:49;;;;;;;19.08;11.02;;;11.10;99.90;;;;;;5085684;28;20024;-79
2021/10/19 09:04:15;;;;;;;15.75;9.90;;;11.20;99.90;;;;;;5106645;28;20084;-79
2021/10/19 17:03:03;;;;;;;196.20;93.10;;;9.60;99.90;;;;;;5057315;28;20456;-80
2021/10/19 17:05:30;;;;;;;156.73;73.72;;;9.60;99.90;;;;;;5041682;28;20033;-81
2021/10/19 17:07:57;;;;;;;196.35;79.70;;;9.50;99.90;;;;;;5036395;28;20013;-81
2021/10/19 17:10:23;;;;;;;179.23;79.32;;;9.50;99.90;;;;;;5038601;28;20013;-81
2021/10/19 17:12:48;;;;;;;173.73;78.65;;;9.50;99.90;;;;;;5039247;28;20030;-80
2021/10/19 17:15:14;;;;;;;192.82;84.47;;;9.40;99.90;;;;;;5042366;28;20033;-80
2021/10/19 17:17:40;;;;;;;174.40;80.20;;;9.40;99.90;;;;;;5040773;28;20021;-79
2021/10/19 17:20:07;;;;;;;166.55;82.32;;;9.30;99.90;;;;;;5039503;28;20530;-80
2021/10/19 17:22:33;;;;;;;159.68;77.30;;;9.30;99.90;;;;;;5030581;28;20050;-79
2021/10/19 17:24:59;;;;;;;150.80;76.60;;;9.20;99.90;;;;;;5037534;28;20021;-80
2021/10/19 17:27:26;;;;;;;141.90;73.28;;;9.20;99.90;;;;;;5036462;28;20028;-80
2021/10/19 17:29:52;;;;;;;147.35;73.82;;;9.10;99.90;;;;;;5034650;28;20459;-79
2021/10/19 17:32:17;;;;;;;126.65;66.60;;;9.10;99.90;;;;;;5036539;28;20116;-80
2021/10/19 17:34:43;;;;;;;110.47;60.17;;;9.00;99.90;;;;;;5038473;28;20009;-81
2021/10/19 17:37:09;;;;;;;129.85;64.93;;;8.90;99.90;;;;;;5041009;28;20034;-80
2021/10/19 17:39:34;;;;;;;157.52;82.03;;;8.90;99.90;;;;;;5039317;28;20013;-80
2021/10/19 17:42:01;;;;;;;124.28;64.90;;;8.80;99.90;;;;;;5034931;28;20077;-81
2021/10/19 17:44:27;;;;;;;175.60;86.53;;;8.80;99.90;;;;;;5037291;28;20028;-81
2021/10/19 17:46:52;;;;;;;172.48;85.88;;;8.80;99.90;;;;;;5034235;28;20045;-80
2021/10/19 17:49:18;;;;;;;136.00;72.25;;;8.70;99.90;;;;;;5036623;28;20109;-80
2021/10/19 17:51:44;;;;;;;123.53;64.25;;;8.70;99.90;;;;;;5039095;28;20434;-80
2021/10/19 17:54:09;;;;;;;257.23;124.18;;;8.70;99.90;;;;;;5042535;28;20017;-80
2021/10/19 17:56:36;;;;;;;300.70;142.02;;;8.60;99.90;;;;;;5040480;28;20494;-80
2021/10/19 17:59:04;;;;;;;144.07;74.25;;;8.60;99.90;;;;;;5034542;28;20048;-80
2021/10/19 18:01:29;;;;;;;120.30;60.92;;;8.50;99.90;;;;;;5032243;28;20045;-80
2021/10/19 18:03:56;;;;;;;115.20;56.05;;;8.40;99.90;;;;;;5029636;28;20092;-80
2021/10/19 18:06:22;;;;;;;105.50;53.15;;;8.40;99.90;;;;;;5032913;28;20061;-81
2021/10/19 18:08:48;;;;;;;96.15;47.67;;;8.40;99.90;;;;;;5034457;28;20489;-81
2021/10/19 18:11:14;;;;;;;92.10;48.17;;;8.30;99.90;;;;;;5037387;28;20042;-82
2021/10/19 18:13:40;;;;;;;92.32;48.92;;;8.30;99.90;;;;;;5027244;28;20013;-81
2021/10/19 18:16:11;;;;;;;100.47;53.72;;;8.30;99.90;;;;;;5024137;28;20033;-81
2021/10/19 18:18:37;;;;;;;106.65;55.47;;;8.20;99.90;;;;;;5021961;28;20490;-81
2021/10/19 18:21:03;;;;;;;110.55;57.83;;;8.20;99.90;;;;;;5013240;28;20048;-81
2021/10/19 18:23:29;;;;;;;94.70;50.47;;;8.10;99.90;;;;;;5018631;28;20033;-80
2021/10/19 18:25:58;;;;;;;94.70;48.05;;;8.10;99.90;;;;;;5023052;28;20040;-80
2021/10/19 18:28:27;;;;;;;91.18;46.53;;;8.00;99.90;;;;;;5022953;28;20021;-80
2021/10/19 18:30:55;;;;;;;86.80;44.22;;;8.00;99.90;;;;;;5019734;28;20460;-80
2021/10/19 18:33:26;;;;;;;91.65;49.17;;;7.90;99.90;;;;;;5020057;28;20423;-80
2021/10/19 18:35:53;;;;;;;80.50;43.92;;;7.80;99.90;;;;;;5020161;28;20101;-80
2021/10/19 18:38:19;;;;;;;78.53;42.08;;;7.80;99.90;;;;;;5021731;28;20570;-81
2021/10/19 18:40:45;;;;;;;72.78;39.58;;;7.70;99.90;;;;;;5023101;28;20281;-80
2021/10/19 18:43:11;;;;;;;74.38;38.00;;;7.70;99.90;;;;;;5021431;28;20052;-80
2021/10/19 18:45:36;;;;;;;72.82;37.47;;;7.60;99.90;;;;;;5022642;28;20045;-80
2021/10/19 18:48:04;;;;;;;75.20;38.47;;;7.50;99.90;;;;;;5022002;28;20034;-80
2021/10/19 18:50:32;;;;;;;74.20;42.22;;;7.50;99.90;;;;;;5017300;28;20029;-80
2021/10/19 18:52:58;;;;;;;142.63;73.82;;;7.40;99.90;;;;;;5022121;28;20510;-80
2021/10/19 18:55:25;;;;;;;108.32;54.92;;;7.40;99.90;;;;;;5019606;28;20060;-80
2021/10/19 18:57:51;;;;;;;113.68;62.15;;;7.40;99.90;;;;;;5021075;28;20065;-81
2021/10/19 19:00:17;;;;;;;118.93;62.47;;;7.30;99.90;;;;;;5020295;28;20075;-80
2021/10/19 19:02:44;;;;;;;111.22;58.45;;;7.30;99.90;;;;;;5025214;28;20045;-81
2021/10/19 19:05:11;;;;;;;99.53;55.08;;;7.30;99.90;;;;;;5022168;28;20021;-80
2021/10/19 19:07:37;;;;;;;100.43;55.47;;;7.20;99.90;;;;;;5021900;28;20487;-80
2021/10/19 19:10:05;;;;;;;101.90;54.80;;;7.20;99.90;;;;;;5019833;28;20041;-80
2021/10/19 19:12:31;;;;;;;93.40;53.22;;;7.10;99.90;;;;;;5021256;28;20041;-79
2021/10/19 19:14:57;;;;;;;82.35;45.00;;;7.10;99.90;;;;;;5013600;28;20037;-79
2021/10/19 19:17:24;;;;;;;84.53;44.67;;;7.10;99.90;;;;;;5021707;28;20461;-80
2021/10/19 19:19:50;;;;;;;82.65;46.75;;;7.00;99.90;;;;;;5017965;28;20033;-80
2021/10/19 19:22:16;;;;;;;95.10;54.65;;;7.00;99.90;;;;;;5018029;28;20434;-80
2021/10/19 19:24:42;;;;;;;85.18;50.25;;;6.90;99.90;;;;;;5016042;28;20014;-80
2021/10/19 19:27:08;;;;;;;84.45;45.53;;;6.90;99.90;;;;;;5015939;28;20021;-80
2021/10/19 19:29:34;;;;;;;90.50;48.70;;;6.90;99.90;;;;;;5018295;28;20395;-79
2021/10/19 19:32:00;;;;;;;84.22;46.88;;;6.90;99.90;;;;;;5021458;28;20040;-79
2021/10/19 19:34:27;;;;;;;82.13;46.92;;;6.80;99.90;;;;;;5019161;28;20025;-80
2021/10/19 19:36:54;;;;;;;80.65;46.78;;;6.80;99.90;;;;;;5016128;28;20257;-80
2021/10/19 19:39:20;;;;;;;79.47;45.17;;;6.80;99.90;;;;;;5022995;28;20021;-79
2021/10/19 19:41:47;;;;;;;89.95;48.42;;;6.70;99.90;;;;;;5018850;28;21222;-80
2021/10/19 19:44:13;;;;;;;85.70;50.20;;;6.70;99.90;;;;;;5023537;28;20018;-81
2021/10/19 19:46:39;;;;;;;81.68;46.78;;;6.70;99.90;;;;;;5024411;28;20017;-80
2021/10/19 19:49:04;;;;;;;75.95;47.05;;;6.60;99.90;;;;;;5025598;28;20112;-79
2021/10/19 19:51:30;;;;;;;84.63;50.55;;;6.60;99.90;;;;;;5025680;28;20164;-80
2021/10/19 19:53:57;;;;;;;76.15;45.63;;;6.50;99.90;;;;;;5031071;28;20029;-79
2021/10/19 19:56:23;;;;;;;78.13;46.80;;;6.50;99.90;;;;;;5014205;28;20526;-79
2021/10/19 19:58:49;;;;;;;74.30;42.28;;;6.60;99.90;;;;;;5013755;28;20049;-79
2021/10/19 20:01:14;;;;;;;81.82;46.50;;;6.60;99.90;;;;;;5019692;28;20390;-80
2021/10/19 20:03:40;;;;;;;80.47;46.50;;;6.50;99.90;;;;;;5019412;28;20033;-79
2021/10/19 20:06:06;;;;;;;80.28;47.30;;;6.60;99.90;;;;;;5028699;28;20491;-80
2021/10/19 20:08:31;;;;;;;81.88;48.65;;;6.60;99.90;;;;;;5018131;28;20059;-80
2021/10/19 20:10:58;;;;;;;82.75;45.35;;;6.50;99.90;;;;;;5026047;28;20029;-79
2021/10/19 20:13:24;;;;;;;86.38;47.47;;;6.50;99.90;;;;;;5014469;28;20053;-80
2021/10/19 20:15:49;;;;;;;78.50;44.55;;;6.40;99.90;;;;;;5014377;28;20410;-80
2021/10/19 20:18:15;;;;;;;77.93;44.55;;;6.40;99.90;;;;;;5020312;28;20045;-80
2021/10/19 20:20:44;;;;;;;80.65;44.15;;;6.40;99.90;;;;;;5014024;28;20026;-80
2021/10/19 20:23:11;;;;;;;75.70;39.97;;;6.30;99.90;;;;;;5031990;28;20026;-80